sensor_id;sensor_type;location;lat;lon;timestamp;temperature;humidity
27439;DHT22;14887;51.252;7.470;2022-07-15T00:00:16;13.70;99.90
27439;DHT22;14887;51.252;7.470;2022-07-15T00:02:42;13.60;99.90
27439;DHT22;14887;51.252;7.470;2022-07-15T00:05:08;13.50;99.90
27439;DHT22;14887;51.252;7.470;2022-07-15T00:07:35;13.60;99.90
27439;DHT22;14887;51.252;7.470;2022-07-15T00:10:01;13.50;99.90
27439;DHT22;14887;51.252;7.470;2022-07-15T00:12:53;13.50;99.90
27439;DHT22;14887;51.252;7.470;2022-07-15T00:15:22;13.50;99.90
27439;DHT22;14887;51.252;7.470;2022-07-15T00:17:47;13.50;99.90
27439;DHT22;14887;51.252;7.470;2022-07-15T00:20:14;13.50;99.90
27439;DHT22;14887;51.252;7.470;2022-07-15T00:22:41;13.50;99.90
27439;DHT22;14887;51.252;7.470;2022-07-15T00:25:07;13.40;99.90
27439;DHT22;14887;51.252;7.470;2022-07-15T00:27:34;13.40;99.90
27439;DHT22;14887;51.252;7.470;2022-07-15T00:30:00;13.30;99.90
27439;DHT22;14887;51.252;7.470;2022-07-15T00:32:25;13.20;99.90
27439;DHT22;14887;51.252;7.470;2022-07-15T00:34:51;13.20;99.90
27439;DHT22;14887;51.252;7.470;2022-07-15T00:37:17;13.20;99.90
27439;DHT22;14887;51.252;7.470;2022-07-15T00:39:43;13.10;99.90
27439;DHT22;14887;51.252;7.470;2022-07-15T00:42:11;13.10;99.90
27439;DHT22;14887;51.252;7.470;2022-07-15T00:44:57;13.00;99.90
27439;DHT22;14887;51.252;7.470;2022-07-15T00:47:23;13.00;99.90
27439;DHT22;14887;51.252;7.470;2022-07-15T00:49:48;13.00;99.90
27439;DHT22;14887;51.252;7.470;2022-07-15T00:52:14;12.90;99.90
27439;DHT22;14887;51.252;7.470;2022-07-15T00:54:40;12.90;99.90
27439;DHT22;14887;51.252;7.470;2022-07-15T00:57:06;13.00;99.90
27439;DHT22;14887;51.252;7.470;2022-07-15T00:59:33;13.10;99.90
27439;DHT22;14887;51.252;7.470;2022-07-15T01:01:59;13.10;99.90
27439;DHT22;14887;51.252;7.470;2022-07-15T01:04:28;13.10;99.90
27439;DHT22;14887;51.252;7.470;2022-07-15T01:06:54;13.10;99.90
27439;DHT22;14887;51.252;7.470;2022-07-15T01:09:20;13.10;99.90
27439;DHT22;14887;51.252;7.470;2022-07-15T01:11:47;13.10;99.90
27439;DHT22;14887;51.252;7.470;2022-07-15T01:14:12;13.00;99.90
27439;DHT22;14887;51.252;7.470;2022-07-15T01:16:38;12.90;99.90
27439;DHT22;14887;51.252;7.470;2022-07-15T01:19:03;12.90;99.90
27439;DHT22;14887;51.252;7.470;2022-07-15T01:21:29;12.90;99.90
27439;DHT22;14887;51.252;7.470;2022-07-15T01:23:55;12.90;99.90
27439;DHT22;14887;51.252;7.470;2022-07-15T01:26:21;12.90;99.90
27439;DHT22;14887;51.252;7.470;2022-07-15T01:28:46;12.90;99.90
27439;DHT22;14887;51.252;7.470;2022-07-15T01:31:12;12.90;99.90
27439;DHT22;14887;51.252;7.470;2022-07-15T01:33:38;12.90;99.90
27439;DHT22;14887;51.252;7.470;2022-07-15T01:36:04;12.80;99.90
27439;DHT22;14887;51.252;7.470;2022-07-15T01:38:30;12.80;99.90
27439;DHT22;14887;51.252;7.470;2022-07-15T01:40:56;12.80;99.90
27439;DHT22;14887;51.252;7.470;2022-07-15T01:43:22;12.80;99.90
27439;DHT22;14887;51.252;7.470;2022-07-15T01:45:47;12.80;99.90
27439;DHT22;14887;51.252;7.470;2022-07-15T01:48:14;12.80;99.90
27439;DHT22;14887;51.252;7.470;2022-07-15T01:51:00;12.80;99.90
27439;DHT22;14887;51.252;7.470;2022-07-15T01:53:27;12.90;99.90
27439;DHT22;14887;51.252;7.470;2022-07-15T01:55:54;12.80;99.90
27439;DHT22;14887;51.252;7.470;2022-07-15T01:58:20;12.80;99.90
27439;DHT22;14887;51.252;7.470;2022-07-15T02:00:46;12.70;99.90
27439;DHT22;14887;51.252;7.470;2022-07-15T02:03:12;12.70;99.90
27439;DHT22;14887;51.252;7.470;2022-07-15T02:05:37;12.70;99.90
27439;DHT22;14887;51.252;7.470;2022-07-15T02:08:03;12.80;99.90
27439;DHT22;14887;51.252;7.470;2022-07-15T02:10:29;12.90;99.90
27439;DHT22;14887;51.252;7.470;2022-07-15T02:13:12;12.90;99.90
27439;DHT22;14887;51.252;7.470;2022-07-15T02:15:38;13.00;99.90
27439;DHT22;14887;51.252;7.470;2022-07-15T02:18:05;12.90;99.90
27439;DHT22;14887;51.252;7.470;2022-07-15T02:20:32;12.80;99.90
27439;DHT22;14887;51.252;7.470;2022-07-15T02:22:58;12.80;99.90
27439;DHT22;14887;51.252;7.470;2022-07-15T02:25:29;12.70;99.90
27439;DHT22;14887;51.252;7.470;2022-07-15T02:27:56;12.60;99.90
27439;DHT22;14887;51.252;7.470;2022-07-15T02:30:26;12.50;99.90
27439;DHT22;14887;51.252;7.470;2022-07-15T02:32:52;12.50;99.90
27439;DHT22;14887;51.252;7.470;2022-07-15T02:35:18;12.50;99.90
27439;DHT22;14887;51.252;7.470;2022-07-15T02:37:45;12.40;99.90
27439;DHT22;14887;51.252;7.470;2022-07-15T02:40:11;12.40;99.90
27439;DHT22;14887;51.252;7.470;2022-07-15T02:42:37;12.40;99.90
27439;DHT22;14887;51.252;7.470;2022-07-15T02:45:03;12.30;99.90
27439;DHT22;14887;51.252;7.470;2022-07-15T02:47:29;12.30;99.90
27439;DHT22;14887;51.252;7.470;2022-07-15T02:49:54;12.30;99.90
27439;DHT22;14887;51.252;7.470;2022-07-15T02:52:20;12.30;99.90
27439;DHT22;14887;51.252;7.470;2022-07-15T02:54:46;12.30;99.90
27439;DHT22;14887;51.252;7.470;2022-07-15T02:57:12;12.40;99.90
27439;DHT22;14887;51.252;7.470;2022-07-15T02:59:37;12.50;99.90
27439;DHT22;14887;51.252;7.470;2022-07-15T03:02:03;12.60;99.90
27439;DHT22;14887;51.252;7.470;2022-07-15T03:04:28;12.70;99.90
27439;DHT22;14887;51.252;7.470;2022-07-15T03:06:54;12.70;99.90
27439;DHT22;14887;51.252;7.470;2022-07-15T03:09:20;12.70;99.90
27439;DHT22;14887;51.252;7.470;2022-07-15T03:11:45;12.80;99.90
27439;DHT22;14887;51.252;7.470;2022-07-15T03:14:11;12.80;99.90
27439;DHT22;14887;51.252;7.470;2022-07-15T03:16:36;12.80;99.90
27439;DHT22;14887;51.252;7.470;2022-07-15T03:19:02;12.70;99.90
27439;DHT22;14887;51.252;7.470;2022-07-15T03:21:28;12.70;99.90
27439;DHT22;14887;51.252;7.470;2022-07-15T03:23:53;12.70;99.90
27439;DHT22;14887;51.252;7.470;2022-07-15T03:26:20;12.70;99.90
27439;DHT22;14887;51.252;7.470;2022-07-15T03:28:46;12.60;99.90
27439;DHT22;14887;51.252;7.470;2022-07-15T03:31:12;12.60;99.90
27439;DHT22;14887;51.252;7.470;2022-07-15T03:33:37;12.60;99.90
27439;DHT22;14887;51.252;7.470;2022-07-15T03:36:03;12.50;99.90
27439;DHT22;14887;51.252;7.470;2022-07-15T03:38:30;12.60;99.90
27439;DHT22;14887;51.252;7.470;2022-07-15T03:40:56;12.70;99.90
27439;DHT22;14887;51.252;7.470;2022-07-15T03:43:21;12.80;99.90
27439;DHT22;14887;51.252;7.470;2022-07-15T03:45:49;12.70;99.90
27439;DHT22;14887;51.252;7.470;2022-07-15T03:48:14;12.70;99.90
27439;DHT22;14887;51.252;7.470;2022-07-15T03:50:40;12.80;99.90
27439;DHT22;14887;51.252;7.470;2022-07-15T03:53:05;12.80;99.90
27439;DHT22;14887;51.252;7.470;2022-07-15T03:55:31;12.80;99.90
27439;DHT22;14887;51.252;7.470;2022-07-15T03:57:57;13.00;99.90
27439;DHT22;14887;51.252;7.470;2022-07-15T04:00:22;13.00;99.90
27439;DHT22;14887;51.252;7.470;2022-07-15T04:02:48;13.10;99.90
27439;DHT22;14887;51.252;7.470;2022-07-15T04:05:14;13.10;99.90
27439;DHT22;14887;51.252;7.470;2022-07-15T04:07:39;13.10;99.90
27439;DHT22;14887;51.252;7.470;2022-07-15T04:10:05;13.10;99.90
27439;DHT22;14887;51.252;7.470;2022-07-15T04:12:31;13.10;99.90
27439;DHT22;14887;51.252;7.470;2022-07-15T04:14:57;13.00;99.90
27439;DHT22;14887;51.252;7.470;2022-07-15T04:17:22;13.00;99.90
27439;DHT22;14887;51.252;7.470;2022-07-15T04:19:48;13.00;99.90
27439;DHT22;14887;51.252;7.470;2022-07-15T04:22:13;13.00;99.90
27439;DHT22;14887;51.252;7.470;2022-07-15T04:24:39;13.00;99.90
27439;DHT22;14887;51.252;7.470;2022-07-15T04:27:05;13.00;99.90
27439;DHT22;14887;51.252;7.470;2022-07-15T04:29:31;13.00;99.90
27439;DHT22;14887;51.252;7.470;2022-07-15T04:31:56;13.00;99.90
27439;DHT22;14887;51.252;7.470;2022-07-15T04:34:22;13.00;99.90
27439;DHT22;14887;51.252;7.470;2022-07-15T04:36:47;12.90;99.90
27439;DHT22;14887;51.252;7.470;2022-07-15T04:39:13;13.10;99.90
27439;DHT22;14887;51.252;7.470;2022-07-15T04:41:39;13.20;99.90
27439;DHT22;14887;51.252;7.470;2022-07-15T04:44:04;13.30;99.90
27439;DHT22;14887;51.252;7.470;2022-07-15T04:46:30;13.30;99.90
27439;DHT22;14887;51.252;7.470;2022-07-15T04:48:55;13.30;99.90
27439;DHT22;14887;51.252;7.470;2022-07-15T04:51:40;13.20;99.90
27439;DHT22;14887;51.252;7.470;2022-07-15T04:54:05;13.20;99.90
27439;DHT22;14887;51.252;7.470;2022-07-15T04:56:31;13.30;99.90
27439;DHT22;14887;51.252;7.470;2022-07-15T04:58:56;13.40;99.90
27439;DHT22;14887;51.252;7.470;2022-07-15T05:01:22;13.40;99.90
27439;DHT22;14887;51.252;7.470;2022-07-15T05:03:47;13.40;99.90
27439;DHT22;14887;51.252;7.470;2022-07-15T05:06:13;13.40;99.90
27439;DHT22;14887;51.252;7.470;2022-07-15T05:08:38;13.40;99.90
27439;DHT22;14887;51.252;7.470;2022-07-15T05:11:04;13.40;99.90
27439;DHT22;14887;51.252;7.470;2022-07-15T05:13:30;13.40;99.90
27439;DHT22;14887;51.252;7.470;2022-07-15T05:15:56;13.40;99.90
27439;DHT22;14887;51.252;7.470;2022-07-15T05:18:22;13.70;99.90
27439;DHT22;14887;51.252;7.470;2022-07-15T05:20:47;13.80;99.90
27439;DHT22;14887;51.252;7.470;2022-07-15T05:23:14;13.90;99.90
27439;DHT22;14887;51.252;7.470;2022-07-15T05:25:40;14.00;99.90
27439;DHT22;14887;51.252;7.470;2022-07-15T05:28:06;14.10;99.90
27439;DHT22;14887;51.252;7.470;2022-07-15T05:30:31;14.20;99.90
27439;DHT22;14887;51.252;7.470;2022-07-15T05:32:57;14.20;99.90
27439;DHT22;14887;51.252;7.470;2022-07-15T05:35:22;14.40;99.90
27439;DHT22;14887;51.252;7.470;2022-07-15T05:37:48;14.50;99.90
27439;DHT22;14887;51.252;7.470;2022-07-15T05:40:13;14.60;99.90
27439;DHT22;14887;51.252;7.470;2022-07-15T05:42:41;14.60;99.90
27439;DHT22;14887;51.252;7.470;2022-07-15T05:45:07;14.50;99.90
27439;DHT22;14887;51.252;7.470;2022-07-15T05:47:33;14.60;99.90
27439;DHT22;14887;51.252;7.470;2022-07-15T05:49:59;14.60;99.90
27439;DHT22;14887;51.252;7.470;2022-07-15T05:52:24;14.50;99.90
27439;DHT22;14887;51.252;7.470;2022-07-15T05:54:50;14.70;99.90
27439;DHT22;14887;51.252;7.470;2022-07-15T05:57:15;15.10;99.90
27439;DHT22;14887;51.252;7.470;2022-07-15T05:59:41;15.50;99.90
27439;DHT22;14887;51.252;7.470;2022-07-15T06:02:07;15.80;99.90
27439;DHT22;14887;51.252;7.470;2022-07-15T06:04:32;16.00;99.90
27439;DHT22;14887;51.252;7.470;2022-07-15T06:06:58;16.30;99.90
27439;DHT22;14887;51.252;7.470;2022-07-15T06:09:23;16.60;99.90
27439;DHT22;14887;51.252;7.470;2022-07-15T06:11:49;17.10;99.90
27439;DHT22;14887;51.252;7.470;2022-07-15T06:14:15;16.80;99.90
27439;DHT22;14887;51.252;7.470;2022-07-15T06:16:41;16.20;99.90
27439;DHT22;14887;51.252;7.470;2022-07-15T06:19:06;16.40;99.90
27439;DHT22;14887;51.252;7.470;2022-07-15T06:21:34;17.30;99.90
27439;DHT22;14887;51.252;7.470;2022-07-15T06:24:00;18.00;99.90
27439;DHT22;14887;51.252;7.470;2022-07-15T06:26:26;17.80;99.90
27439;DHT22;14887;51.252;7.470;2022-07-15T06:28:52;17.60;99.90
27439;DHT22;14887;51.252;7.470;2022-07-15T06:31:17;18.10;99.90
27439;DHT22;14887;51.252;7.470;2022-07-15T06:33:43;18.10;99.90
27439;DHT22;14887;51.252;7.470;2022-07-15T06:36:08;18.10;99.90
27439;DHT22;14887;51.252;7.470;2022-07-15T06:38:34;18.60;99.90
27439;DHT22;14887;51.252;7.470;2022-07-15T06:40:59;18.30;99.90
27439;DHT22;14887;51.252;7.470;2022-07-15T06:43:25;17.70;99.90
27439;DHT22;14887;51.252;7.470;2022-07-15T06:45:50;17.50;99.90
27439;DHT22;14887;51.252;7.470;2022-07-15T06:48:16;17.70;99.90
27439;DHT22;14887;51.252;7.470;2022-07-15T06:50:41;17.80;99.90
27439;DHT22;14887;51.252;7.470;2022-07-15T06:53:07;17.30;99.90
27439;DHT22;14887;51.252;7.470;2022-07-15T06:55:33;16.90;99.90
27439;DHT22;14887;51.252;7.470;2022-07-15T06:57:59;16.90;99.90
27439;DHT22;14887;51.252;7.470;2022-07-15T07:00:24;17.60;99.90
27439;DHT22;14887;51.252;7.470;2022-07-15T07:02:50;17.40;99.90
27439;DHT22;14887;51.252;7.470;2022-07-15T07:05:16;17.20;99.90
27439;DHT22;14887;51.252;7.470;2022-07-15T07:07:42;16.60;99.90
27439;DHT22;14887;51.252;7.470;2022-07-15T07:10:08;15.90;99.90
27439;DHT22;14887;51.252;7.470;2022-07-15T07:12:34;15.50;99.90
27439;DHT22;14887;51.252;7.470;2022-07-15T07:15:00;15.20;99.90
27439;DHT22;14887;51.252;7.470;2022-07-15T07:17:27;15.50;99.90
27439;DHT22;14887;51.252;7.470;2022-07-15T07:19:53;16.90;99.90
27439;DHT22;14887;51.252;7.470;2022-07-15T07:22:18;17.80;99.90
27439;DHT22;14887;51.252;7.470;2022-07-15T07:24:44;18.60;99.90
27439;DHT22;14887;51.252;7.470;2022-07-15T07:27:10;18.70;99.90
27439;DHT22;14887;51.252;7.470;2022-07-15T07:29:36;18.50;99.90
27439;DHT22;14887;51.252;7.470;2022-07-15T07:32:02;19.70;99.90
27439;DHT22;14887;51.252;7.470;2022-07-15T07:34:28;20.00;99.90
27439;DHT22;14887;51.252;7.470;2022-07-15T07:36:54;19.60;99.90
27439;DHT22;14887;51.252;7.470;2022-07-15T07:39:19;18.90;99.90
27439;DHT22;14887;51.252;7.470;2022-07-15T07:41:45;18.10;99.90
27439;DHT22;14887;51.252;7.470;2022-07-15T07:44:11;17.30;99.90
27439;DHT22;14887;51.252;7.470;2022-07-15T07:46:36;16.90;99.90
27439;DHT22;14887;51.252;7.470;2022-07-15T07:49:02;16.70;99.90
27439;DHT22;14887;51.252;7.470;2022-07-15T07:51:28;17.00;99.90
27439;DHT22;14887;51.252;7.470;2022-07-15T07:53:53;17.10;99.90
27439;DHT22;14887;51.252;7.470;2022-07-15T07:56:19;16.80;99.90
27439;DHT22;14887;51.252;7.470;2022-07-15T07:58:44;16.80;99.90
27439;DHT22;14887;51.252;7.470;2022-07-15T08:01:10;16.90;99.90
27439;DHT22;14887;51.252;7.470;2022-07-15T08:03:36;17.20;99.90
27439;DHT22;14887;51.252;7.470;2022-07-15T08:06:01;17.30;99.90
27439;DHT22;14887;51.252;7.470;2022-07-15T08:08:27;17.50;99.90
27439;DHT22;14887;51.252;7.470;2022-07-15T08:10:56;17.70;99.90
27439;DHT22;14887;51.252;7.470;2022-07-15T08:13:23;17.80;99.90
27439;DHT22;14887;51.252;7.470;2022-07-15T08:15:50;18.10;99.90
27439;DHT22;14887;51.252;7.470;2022-07-15T08:18:16;18.20;99.90
27439;DHT22;14887;51.252;7.470;2022-07-15T08:20:41;18.20;99.90
27439;DHT22;14887;51.252;7.470;2022-07-15T08:23:07;18.20;99.90
27439;DHT22;14887;51.252;7.470;2022-07-15T08:25:35;18.20;99.90
27439;DHT22;14887;51.252;7.470;2022-07-15T08:28:02;18.20;99.90
27439;DHT22;14887;51.252;7.470;2022-07-15T08:30:29;18.10;99.90
27439;DHT22;14887;51.252;7.470;2022-07-15T08:32:55;18.00;99.90
27439;DHT22;14887;51.252;7.470;2022-07-15T08:35:22;18.00;99.90
27439;DHT22;14887;51.252;7.470;2022-07-15T08:37:48;18.70;99.90
27439;DHT22;14887;51.252;7.470;2022-07-15T08:40:15;19.40;99.90
27439;DHT22;14887;51.252;7.470;2022-07-15T08:42:41;20.00;99.90
27439;DHT22;14887;51.252;7.470;2022-07-15T08:45:09;20.30;99.90
27439;DHT22;14887;51.252;7.470;2022-07-15T08:47:37;20.40;99.40
27439;DHT22;14887;51.252;7.470;2022-07-15T08:50:03;20.30;99.90
27439;DHT22;14887;51.252;7.470;2022-07-15T08:52:33;20.20;98.10
27439;DHT22;14887;51.252;7.470;2022-07-15T08:54:59;20.50;98.10
27439;DHT22;14887;51.252;7.470;2022-07-15T08:57:25;21.70;97.50
27439;DHT22;14887;51.252;7.470;2022-07-15T08:59:54;23.60;96.40
27439;DHT22;14887;51.252;7.470;2022-07-15T09:02:20;25.70;91.50
27439;DHT22;14887;51.252;7.470;2022-07-15T09:08:05;27.80;79.00
27439;DHT22;14887;51.252;7.470;2022-07-15T09:10:55;26.00;75.90
27439;DHT22;14887;51.252;7.470;2022-07-15T09:18:38;22.20;83.50
27439;DHT22;14887;51.252;7.470;2022-07-15T09:21:23;21.40;86.50
27439;DHT22;14887;51.252;7.470;2022-07-15T09:23:50;20.40;89.50
27439;DHT22;14887;51.252;7.470;2022-07-15T09:26:33;20.00;91.30
27439;DHT22;14887;51.252;7.470;2022-07-15T09:29:00;19.50;91.80
27439;DHT22;14887;51.252;7.470;2022-07-15T09:31:32;19.80;93.30
27439;DHT22;14887;51.252;7.470;2022-07-15T09:34:18;20.30;92.50
27439;DHT22;14887;51.252;7.470;2022-07-15T09:36:47;21.10;93.30
27439;DHT22;14887;51.252;7.470;2022-07-15T09:39:17;23.20;90.30
27439;DHT22;14887;51.252;7.470;2022-07-15T09:41:44;25.00;84.10
27439;DHT22;14887;51.252;7.470;2022-07-15T09:46:51;25.20;76.10
27439;DHT22;14887;51.252;7.470;2022-07-15T09:49:29;24.90;74.40
27439;DHT22;14887;51.252;7.470;2022-07-15T09:52:09;24.40;77.70
27439;DHT22;14887;51.252;7.470;2022-07-15T09:54:43;23.30;77.70
27439;DHT22;14887;51.252;7.470;2022-07-15T09:57:11;22.80;80.40
27439;DHT22;14887;51.252;7.470;2022-07-15T09:59:39;23.40;81.00
27439;DHT22;14887;51.252;7.470;2022-07-15T10:02:05;24.40;79.30
27439;DHT22;14887;51.252;7.470;2022-07-15T10:04:31;25.30;79.00
27439;DHT22;14887;51.252;7.470;2022-07-15T10:06:58;26.30;75.80
27439;DHT22;14887;51.252;7.470;2022-07-15T10:09:29;26.00;74.80
27439;DHT22;14887;51.252;7.470;2022-07-15T10:12:03;25.50;75.30
27439;DHT22;14887;51.252;7.470;2022-07-15T10:17:36;25.50;74.70
27439;DHT22;14887;51.252;7.470;2022-07-15T10:23:04;26.40;71.90
27439;DHT22;14887;51.252;7.470;2022-07-15T10:31:15;26.50;66.10
27439;DHT22;14887;51.252;7.470;2022-07-15T10:33:41;25.30;69.40
27439;DHT22;14887;51.252;7.470;2022-07-15T10:36:08;24.60;70.40
27439;DHT22;14887;51.252;7.470;2022-07-15T10:38:36;25.00;73.50
27439;DHT22;14887;51.252;7.470;2022-07-15T10:41:13;25.80;70.60
27439;DHT22;14887;51.252;7.470;2022-07-15T10:43:49;25.10;71.70
27439;DHT22;14887;51.252;7.470;2022-07-15T10:46:28;24.20;71.60
27439;DHT22;14887;51.252;7.470;2022-07-15T10:54:05;24.50;72.60
27439;DHT22;14887;51.252;7.470;2022-07-15T10:59:13;23.80;69.60
27439;DHT22;14887;51.252;7.470;2022-07-15T11:01:44;23.30;71.50
27439;DHT22;14887;51.252;7.470;2022-07-15T11:04:24;22.60;72.90
27439;DHT22;14887;51.252;7.470;2022-07-15T11:12:11;23.10;72.50
27439;DHT22;14887;51.252;7.470;2022-07-15T11:14:56;23.10;75.30
27439;DHT22;14887;51.252;7.470;2022-07-15T11:20:07;22.50;76.60
27439;DHT22;14887;51.252;7.470;2022-07-15T11:22:41;22.40;76.40
27439;DHT22;14887;51.252;7.470;2022-07-15T11:27:58;21.70;77.80
27439;DHT22;14887;51.252;7.470;2022-07-15T11:30:27;21.40;77.70
27439;DHT22;14887;51.252;7.470;2022-07-15T11:32:57;21.60;79.00
27439;DHT22;14887;51.252;7.470;2022-07-15T11:35:24;22.70;78.20
27439;DHT22;14887;51.252;7.470;2022-07-15T11:37:58;23.10;76.20
27439;DHT22;14887;51.252;7.470;2022-07-15T11:40:24;23.20;75.60
27439;DHT22;14887;51.252;7.470;2022-07-15T11:43:13;22.80;74.60
27439;DHT22;14887;51.252;7.470;2022-07-15T11:45:58;22.90;76.00
27439;DHT22;14887;51.252;7.470;2022-07-15T11:48:24;23.40;77.00
27439;DHT22;14887;51.252;7.470;2022-07-15T11:50:53;23.40;78.10
27439;DHT22;14887;51.252;7.470;2022-07-15T11:53:19;23.20;75.40
27439;DHT22;14887;51.252;7.470;2022-07-15T11:55:58;22.60;76.00
27439;DHT22;14887;51.252;7.470;2022-07-15T11:58:43;22.10;76.00
27439;DHT22;14887;51.252;7.470;2022-07-15T12:01:21;21.30;78.70
27439;DHT22;14887;51.252;7.470;2022-07-15T12:03:49;20.60;80.80
27439;DHT22;14887;51.252;7.470;2022-07-15T12:06:19;20.50;82.60
27439;DHT22;14887;51.252;7.470;2022-07-15T12:08:51;20.40;86.50
27439;DHT22;14887;51.252;7.470;2022-07-15T12:11:24;20.40;83.40
27439;DHT22;14887;51.252;7.470;2022-07-15T12:13:56;20.60;84.80
27439;DHT22;14887;51.252;7.470;2022-07-15T12:16:43;21.40;82.60
27439;DHT22;14887;51.252;7.470;2022-07-15T12:19:22;22.70;82.30
27439;DHT22;14887;51.252;7.470;2022-07-15T12:21:51;24.20;79.00
27439;DHT22;14887;51.252;7.470;2022-07-15T12:24:19;25.40;73.50
27439;DHT22;14887;51.252;7.470;2022-07-15T12:29:18;26.70;68.40
27439;DHT22;14887;51.252;7.470;2022-07-15T12:31:54;26.50;66.60
27439;DHT22;14887;51.252;7.470;2022-07-15T12:34:21;25.80;69.20
27439;DHT22;14887;51.252;7.470;2022-07-15T12:36:57;24.90;71.10
27439;DHT22;14887;51.252;7.470;2022-07-15T12:39:23;24.00;73.90
27439;DHT22;14887;51.252;7.470;2022-07-15T12:42:03;23.20;75.30
27439;DHT22;14887;51.252;7.470;2022-07-15T12:44:30;22.50;75.70
27439;DHT22;14887;51.252;7.470;2022-07-15T12:47:03;21.90;75.40
27439;DHT22;14887;51.252;7.470;2022-07-15T12:49:50;21.60;78.30
27439;DHT22;14887;51.252;7.470;2022-07-15T12:52:39;21.30;79.90
27439;DHT22;14887;51.252;7.470;2022-07-15T12:55:20;21.50;79.30
27439;DHT22;14887;51.252;7.470;2022-07-15T12:57:47;21.40;80.80
27439;DHT22;14887;51.252;7.470;2022-07-15T13:00:22;21.10;81.50
27439;DHT22;14887;51.252;7.470;2022-07-15T13:03:17;21.10;82.70
27439;DHT22;14887;51.252;7.470;2022-07-15T13:05:46;21.20;84.20
27439;DHT22;14887;51.252;7.470;2022-07-15T13:08:14;21.30;83.70
27439;DHT22;14887;51.252;7.470;2022-07-15T13:10:42;21.50;83.30
27439;DHT22;14887;51.252;7.470;2022-07-15T13:13:09;21.40;83.00
27439;DHT22;14887;51.252;7.470;2022-07-15T13:15:35;21.20;85.30
27439;DHT22;14887;51.252;7.470;2022-07-15T13:18:00;21.30;84.50
27439;DHT22;14887;51.252;7.470;2022-07-15T13:20:27;21.20;83.40
27439;DHT22;14887;51.252;7.470;2022-07-15T13:22:53;21.20;86.10
27439;DHT22;14887;51.252;7.470;2022-07-15T13:25:19;21.00;85.20
27439;DHT22;14887;51.252;7.470;2022-07-15T13:27:44;21.40;85.80
27439;DHT22;14887;51.252;7.470;2022-07-15T13:30:11;21.70;82.80
27439;DHT22;14887;51.252;7.470;2022-07-15T13:32:37;21.90;82.60
27439;DHT22;14887;51.252;7.470;2022-07-15T13:35:05;22.20;82.70
27439;DHT22;14887;51.252;7.470;2022-07-15T13:37:31;22.20;81.10
27439;DHT22;14887;51.252;7.470;2022-07-15T13:39:56;22.60;80.90
27439;DHT22;14887;51.252;7.470;2022-07-15T13:42:22;24.30;79.90
27439;DHT22;14887;51.252;7.470;2022-07-15T13:44:53;26.90;78.10
27439;DHT22;14887;51.252;7.470;2022-07-15T13:47:19;29.40;67.80
27439;DHT22;14887;51.252;7.470;2022-07-15T13:49:45;30.20;64.20
27439;DHT22;14887;51.252;7.470;2022-07-15T13:52:29;29.80;59.40
27439;DHT22;14887;51.252;7.470;2022-07-15T13:54:55;28.20;59.10
27439;DHT22;14887;51.252;7.470;2022-07-15T13:57:20;27.00;61.80
27439;DHT22;14887;51.252;7.470;2022-07-15T13:59:46;25.90;64.70
27439;DHT22;14887;51.252;7.470;2022-07-15T14:02:12;25.60;67.20
27439;DHT22;14887;51.252;7.470;2022-07-15T14:04:38;26.10;69.80
27439;DHT22;14887;51.252;7.470;2022-07-15T14:07:03;27.50;64.90
27439;DHT22;14887;51.252;7.470;2022-07-15T14:09:29;28.40;59.90
27439;DHT22;14887;51.252;7.470;2022-07-15T14:11:55;28.60;59.10
27439;DHT22;14887;51.252;7.470;2022-07-15T14:14:21;27.70;58.30
27439;DHT22;14887;51.252;7.470;2022-07-15T14:16:47;26.70;59.10
27439;DHT22;14887;51.252;7.470;2022-07-15T14:19:14;25.70;61.00
27439;DHT22;14887;51.252;7.470;2022-07-15T14:21:39;24.90;63.80
27439;DHT22;14887;51.252;7.470;2022-07-15T14:24:05;24.80;63.20
27439;DHT22;14887;51.252;7.470;2022-07-15T14:26:31;25.20;62.50
27439;DHT22;14887;51.252;7.470;2022-07-15T14:28:56;25.50;63.20
27439;DHT22;14887;51.252;7.470;2022-07-15T14:31:22;26.30;60.70
27439;DHT22;14887;51.252;7.470;2022-07-15T14:33:48;27.40;60.20
27439;DHT22;14887;51.252;7.470;2022-07-15T14:36:13;28.10;58.20
27439;DHT22;14887;51.252;7.470;2022-07-15T14:38:40;27.40;58.20
27439;DHT22;14887;51.252;7.470;2022-07-15T14:41:07;25.80;59.60
27439;DHT22;14887;51.252;7.470;2022-07-15T14:43:34;24.60;60.70
27439;DHT22;14887;51.252;7.470;2022-07-15T14:46:00;23.80;62.60
27439;DHT22;14887;51.252;7.470;2022-07-15T14:48:25;23.00;62.80
27439;DHT22;14887;51.252;7.470;2022-07-15T14:50:52;22.50;65.90
27439;DHT22;14887;51.252;7.470;2022-07-15T14:53:18;22.10;65.40
27439;DHT22;14887;51.252;7.470;2022-07-15T14:55:44;22.00;68.40
27439;DHT22;14887;51.252;7.470;2022-07-15T14:58:10;22.00;68.30
27439;DHT22;14887;51.252;7.470;2022-07-15T15:00:42;22.00;69.90
27439;DHT22;14887;51.252;7.470;2022-07-15T15:03:08;22.10;67.00
27439;DHT22;14887;51.252;7.470;2022-07-15T15:05:34;22.20;68.20
27439;DHT22;14887;51.252;7.470;2022-07-15T15:08:00;22.60;67.90
27439;DHT22;14887;51.252;7.470;2022-07-15T15:10:25;22.70;68.00
27439;DHT22;14887;51.252;7.470;2022-07-15T15:12:51;23.10;68.60
27439;DHT22;14887;51.252;7.470;2022-07-15T15:15:16;23.60;68.70
27439;DHT22;14887;51.252;7.470;2022-07-15T15:17:42;24.40;69.40
27439;DHT22;14887;51.252;7.470;2022-07-15T15:20:09;24.90;64.80
27439;DHT22;14887;51.252;7.470;2022-07-15T15:22:35;25.50;62.80
27439;DHT22;14887;51.252;7.470;2022-07-15T15:25:02;26.50;64.20
27439;DHT22;14887;51.252;7.470;2022-07-15T15:27:27;26.80;60.00
27439;DHT22;14887;51.252;7.470;2022-07-15T15:29:53;27.40;60.40
27439;DHT22;14887;51.252;7.470;2022-07-15T15:32:19;27.20;59.50
27439;DHT22;14887;51.252;7.470;2022-07-15T15:34:44;26.70;61.00
27439;DHT22;14887;51.252;7.470;2022-07-15T15:37:10;25.50;59.50
27439;DHT22;14887;51.252;7.470;2022-07-15T15:39:36;24.60;61.20
27439;DHT22;14887;51.252;7.470;2022-07-15T15:42:03;24.10;63.30
27439;DHT22;14887;51.252;7.470;2022-07-15T15:44:29;23.70;62.40
27439;DHT22;14887;51.252;7.470;2022-07-15T15:46:54;23.40;61.50
27439;DHT22;14887;51.252;7.470;2022-07-15T15:49:20;23.20;64.20
27439;DHT22;14887;51.252;7.470;2022-07-15T15:51:45;22.70;65.80
27439;DHT22;14887;51.252;7.470;2022-07-15T15:54:11;22.40;64.80
27439;DHT22;14887;51.252;7.470;2022-07-15T15:56:37;22.50;65.90
27439;DHT22;14887;51.252;7.470;2022-07-15T15:59:03;22.40;66.10
27439;DHT22;14887;51.252;7.470;2022-07-15T16:01:29;22.30;66.40
27439;DHT22;14887;51.252;7.470;2022-07-15T16:03:54;22.10;66.10
27439;DHT22;14887;51.252;7.470;2022-07-15T16:06:20;22.10;67.10
27439;DHT22;14887;51.252;7.470;2022-07-15T16:08:46;21.90;65.60
27439;DHT22;14887;51.252;7.470;2022-07-15T16:11:13;22.10;65.80
27439;DHT22;14887;51.252;7.470;2022-07-15T16:13:39;22.60;66.40
27439;DHT22;14887;51.252;7.470;2022-07-15T16:16:04;23.40;64.10